sensor_id;sensor_type;location;lat;lon;timestamp;temperature;humidity
23637;DHT22;11995;50.842;4.456;2023-03-01T00:01:23;1.60;99.90
23637;DHT22;11995;50.842;4.456;2023-03-01T00:03:52;1.60;99.90
23637;DHT22;11995;50.842;4.456;2023-03-01T00:06:20;1.70;99.90
23637;DHT22;11995;50.842;4.456;2023-03-01T00:08:49;1.70;99.90
23637;DHT22;11995;50.842;4.456;2023-03-01T00:11:26;1.60;99.90
23637;DHT22;11995;50.842;4.456;2023-03-01T00:13:56;1.60;99.90
23637;DHT22;11995;50.842;4.456;2023-03-01T00:16:34;1.50;99.90
23637;DHT22;11995;50.842;4.456;2023-03-01T00:19:02;1.40;99.90
23637;DHT22;11995;50.842;4.456;2023-03-01T00:21:36;1.30;99.90
23637;DHT22;11995;50.842;4.456;2023-03-01T00:24:04;1.20;99.90
23637;DHT22;11995;50.842;4.456;2023-03-01T00:26:32;1.20;99.90
23637;DHT22;11995;50.842;4.456;2023-03-01T00:29:00;1.20;99.90
23637;DHT22;11995;50.842;4.456;2023-03-01T00:31:30;1.10;99.90
23637;DHT22;11995;50.842;4.456;2023-03-01T00:34:05;1.10;99.90
23637;DHT22;11995;50.842;4.456;2023-03-01T00:36:36;1.00;99.90
23637;DHT22;11995;50.842;4.456;2023-03-01T00:39:05;1.00;99.90
23637;DHT22;11995;50.842;4.456;2023-03-01T00:41:33;0.90;99.90
23637;DHT22;11995;50.842;4.456;2023-03-01T00:44:01;0.90;99.90
23637;DHT22;11995;50.842;4.456;2023-03-01T00:46:30;0.90;99.90
23637;DHT22;11995;50.842;4.456;2023-03-01T00:48:57;0.80;99.90
23637;DHT22;11995;50.842;4.456;2023-03-01T00:51:28;0.80;99.90
23637;DHT22;11995;50.842;4.456;2023-03-01T00:53:59;0.70;99.90
23637;DHT22;11995;50.842;4.456;2023-03-01T00:56:27;0.70;99.90
23637;DHT22;11995;50.842;4.456;2023-03-01T00:58:54;0.70;99.90
23637;DHT22;11995;50.842;4.456;2023-03-01T01:01:24;0.70;99.90
23637;DHT22;11995;50.842;4.456;2023-03-01T01:04:02;0.70;99.90
23637;DHT22;11995;50.842;4.456;2023-03-01T01:06:36;0.80;99.90
23637;DHT22;11995;50.842;4.456;2023-03-01T01:09:03;0.70;99.90
23637;DHT22;11995;50.842;4.456;2023-03-01T01:11:32;0.70;99.90
23637;DHT22;11995;50.842;4.456;2023-03-01T01:14:01;0.60;99.90
23637;DHT22;11995;50.842;4.456;2023-03-01T01:16:29;0.60;99.90
23637;DHT22;11995;50.842;4.456;2023-03-01T01:18:57;0.70;99.90
23637;DHT22;11995;50.842;4.456;2023-03-01T01:21:26;0.60;99.90
23637;DHT22;11995;50.842;4.456;2023-03-01T01:23:55;0.60;99.90
23637;DHT22;11995;50.842;4.456;2023-03-01T01:26:28;0.70;99.90
23637;DHT22;11995;50.842;4.456;2023-03-01T01:28:56;0.70;99.90
23637;DHT22;11995;50.842;4.456;2023-03-01T01:31:30;0.70;99.90
23637;DHT22;11995;50.842;4.456;2023-03-01T01:33:59;0.70;99.90
23637;DHT22;11995;50.842;4.456;2023-03-01T01:36:30;0.70;99.90
23637;DHT22;11995;50.842;4.456;2023-03-01T01:38:58;0.70;99.90
23637;DHT22;11995;50.842;4.456;2023-03-01T01:41:28;0.70;99.90
23637;DHT22;11995;50.842;4.456;2023-03-01T01:46:53;0.70;99.90
23637;DHT22;11995;50.842;4.456;2023-03-01T01:49:32;0.70;99.90
23637;DHT22;11995;50.842;4.456;2023-03-01T01:52:42;0.60;99.90
23637;DHT22;11995;50.842;4.456;2023-03-01T01:54:37;0.60;99.90
23637;DHT22;11995;50.842;4.456;2023-03-01T01:57:07;0.60;99.90
23637;DHT22;11995;50.842;4.456;2023-03-01T01:59:36;0.50;99.90
23637;DHT22;11995;50.842;4.456;2023-03-01T02:02:06;0.50;99.90
23637;DHT22;11995;50.842;4.456;2023-03-01T02:04:39;0.60;99.90
23637;DHT22;11995;50.842;4.456;2023-03-01T02:07:19;0.60;99.90
23637;DHT22;11995;50.842;4.456;2023-03-01T02:09:51;0.60;99.90
23637;DHT22;11995;50.842;4.456;2023-03-01T02:12:21;0.50;99.90
23637;DHT22;11995;50.842;4.456;2023-03-01T02:14:50;0.50;99.90
23637;DHT22;11995;50.842;4.456;2023-03-01T02:17:18;0.50;99.90
23637;DHT22;11995;50.842;4.456;2023-03-01T02:22:31;0.50;99.90
23637;DHT22;11995;50.842;4.456;2023-03-01T02:25:20;0.50;99.90
23637;DHT22;11995;50.842;4.456;2023-03-01T02:30:48;0.40;99.90
23637;DHT22;11995;50.842;4.456;2023-03-01T02:33:37;0.40;99.90
23637;DHT22;11995;50.842;4.456;2023-03-01T02:36:12;0.30;99.90
23637;DHT22;11995;50.842;4.456;2023-03-01T02:38:41;0.30;99.90
23637;DHT22;11995;50.842;4.456;2023-03-01T02:41:11;0.30;99.90
23637;DHT22;11995;50.842;4.456;2023-03-01T02:43:39;0.30;99.90
23637;DHT22;11995;50.842;4.456;2023-03-01T02:46:30;0.30;99.90
23637;DHT22;11995;50.842;4.456;2023-03-01T02:48:44;0.30;99.90
23637;DHT22;11995;50.842;4.456;2023-03-01T02:54:21;0.20;99.90
23637;DHT22;11995;50.842;4.456;2023-03-01T02:56:47;0.10;99.90
23637;DHT22;11995;50.842;4.456;2023-03-01T02:59:18;0.00;99.90
23637;DHT22;11995;50.842;4.456;2023-03-01T03:01:46;0.00;99.90
23637;DHT22;11995;50.842;4.456;2023-03-01T03:04:16;0.00;99.90
23637;DHT22;11995;50.842;4.456;2023-03-01T03:06:46;0.00;99.90
23637;DHT22;11995;50.842;4.456;2023-03-01T03:09:15;0.00;99.90
23637;DHT22;11995;50.842;4.456;2023-03-01T03:11:43;-0.10;99.90
23637;DHT22;11995;50.842;4.456;2023-03-01T03:14:12;-0.10;99.90
23637;DHT22;11995;50.842;4.456;2023-03-01T03:16:48;-0.10;99.90
23637;DHT22;11995;50.842;4.456;2023-03-01T03:19:18;-0.20;99.90
23637;DHT22;11995;50.842;4.456;2023-03-01T03:21:46;-0.20;99.90
23637;DHT22;11995;50.842;4.456;2023-03-01T03:24:13;-0.20;99.90
23637;DHT22;11995;50.842;4.456;2023-03-01T03:26:41;-0.20;99.90
23637;DHT22;11995;50.842;4.456;2023-03-01T03:29:09;-0.20;99.90
23637;DHT22;11995;50.842;4.456;2023-03-01T03:31:38;-0.30;99.90
23637;DHT22;11995;50.842;4.456;2023-03-01T03:34:06;-0.30;99.90
23637;DHT22;11995;50.842;4.456;2023-03-01T03:36:34;-0.30;99.90
23637;DHT22;11995;50.842;4.456;2023-03-01T03:39:01;-0.30;99.90
23637;DHT22;11995;50.842;4.456;2023-03-01T03:41:29;-0.40;99.90
23637;DHT22;11995;50.842;4.456;2023-03-01T03:43:56;-0.40;99.90
23637;DHT22;11995;50.842;4.456;2023-03-01T03:46:24;-0.30;99.90
23637;DHT22;11995;50.842;4.456;2023-03-01T03:48:52;-0.30;99.90
23637;DHT22;11995;50.842;4.456;2023-03-01T03:51:20;-0.30;99.90
23637;DHT22;11995;50.842;4.456;2023-03-01T03:53:49;-0.20;99.90
23637;DHT22;11995;50.842;4.456;2023-03-01T03:56:17;-0.20;99.90
23637;DHT22;11995;50.842;4.456;2023-03-01T03:58:44;-0.10;99.90
23637;DHT22;11995;50.842;4.456;2023-03-01T04:01:12;0.00;99.90
23637;DHT22;11995;50.842;4.456;2023-03-01T04:03:41;0.00;99.90
23637;DHT22;11995;50.842;4.456;2023-03-01T04:06:16;-0.10;99.90
23637;DHT22;11995;50.842;4.456;2023-03-01T04:08:43;0.00;99.90
23637;DHT22;11995;50.842;4.456;2023-03-01T04:11:12;0.00;99.90
23637;DHT22;11995;50.842;4.456;2023-03-01T04:13:57;0.00;99.90
23637;DHT22;11995;50.842;4.456;2023-03-01T04:16:26;0.00;99.90
23637;DHT22;11995;50.842;4.456;2023-03-01T04:18:53;0.00;99.90
23637;DHT22;11995;50.842;4.456;2023-03-01T04:21:21;0.00;99.90
23637;DHT22;11995;50.842;4.456;2023-03-01T04:23:49;0.10;99.90
23637;DHT22;11995;50.842;4.456;2023-03-01T04:26:19;0.00;99.90
23637;DHT22;11995;50.842;4.456;2023-03-01T04:28:48;0.00;99.90
23637;DHT22;11995;50.842;4.456;2023-03-01T04:31:18;0.00;99.90
23637;DHT22;11995;50.842;4.456;2023-03-01T04:33:52;0.10;99.90
23637;DHT22;11995;50.842;4.456;2023-03-01T04:36:23;0.00;99.90
23637;DHT22;11995;50.842;4.456;2023-03-01T04:38:51;0.00;99.90
23637;DHT22;11995;50.842;4.456;2023-03-01T04:41:21;0.00;99.90
23637;DHT22;11995;50.842;4.456;2023-03-01T04:43:49;-0.10;99.90
23637;DHT22;11995;50.842;4.456;2023-03-01T04:46:22;-0.10;99.90
23637;DHT22;11995;50.842;4.456;2023-03-01T04:48:50;-0.10;99.90
23637;DHT22;11995;50.842;4.456;2023-03-01T04:51:18;-0.10;99.90
23637;DHT22;11995;50.842;4.456;2023-03-01T04:53:46;-0.10;99.90
23637;DHT22;11995;50.842;4.456;2023-03-01T04:56:14;-0.10;99.90
23637;DHT22;11995;50.842;4.456;2023-03-01T04:58:45;-0.10;99.90
23637;DHT22;11995;50.842;4.456;2023-03-01T05:01:16;-0.10;99.90
23637;DHT22;11995;50.842;4.456;2023-03-01T05:03:49;-0.10;99.90
23637;DHT22;11995;50.842;4.456;2023-03-01T05:06:18;-0.10;99.90
23637;DHT22;11995;50.842;4.456;2023-03-01T05:08:47;-0.20;99.90
23637;DHT22;11995;50.842;4.456;2023-03-01T05:11:14;-0.20;99.90
23637;DHT22;11995;50.842;4.456;2023-03-01T05:13:42;-0.20;99.90
23637;DHT22;11995;50.842;4.456;2023-03-01T05:16:10;-0.20;99.90
23637;DHT22;11995;50.842;4.456;2023-03-01T05:18:41;-0.20;99.90
23637;DHT22;11995;50.842;4.456;2023-03-01T05:21:12;-0.10;99.90
23637;DHT22;11995;50.842;4.456;2023-03-01T05:23:42;-0.10;99.90
23637;DHT22;11995;50.842;4.456;2023-03-01T05:26:09;-0.20;99.90
23637;DHT22;11995;50.842;4.456;2023-03-01T05:28:39;-0.20;99.90
23637;DHT22;11995;50.842;4.456;2023-03-01T05:31:07;-0.30;99.90
23637;DHT22;11995;50.842;4.456;2023-03-01T05:33:38;-0.30;99.90
23637;DHT22;11995;50.842;4.456;2023-03-01T05:36:11;-0.30;99.90
23637;DHT22;11995;50.842;4.456;2023-03-01T05:38:38;-0.20;99.90
23637;DHT22;11995;50.842;4.456;2023-03-01T05:41:13;-0.30;99.90
23637;DHT22;11995;50.842;4.456;2023-03-01T05:43:37;-0.30;99.90
23637;DHT22;11995;50.842;4.456;2023-03-01T05:46:06;-0.40;99.90
23637;DHT22;11995;50.842;4.456;2023-03-01T05:48:35;-0.40;99.90
23637;DHT22;11995;50.842;4.456;2023-03-01T05:51:03;-0.40;99.90
23637;DHT22;11995;50.842;4.456;2023-03-01T05:53:31;-0.40;99.90
23637;DHT22;11995;50.842;4.456;2023-03-01T05:55:58;-0.30;99.90
23637;DHT22;11995;50.842;4.456;2023-03-01T05:58:26;-0.40;99.90
23637;DHT22;11995;50.842;4.456;2023-03-01T06:00:54;-0.40;99.90
23637;DHT22;11995;50.842;4.456;2023-03-01T06:03:22;-0.40;99.90
23637;DHT22;11995;50.842;4.456;2023-03-01T06:05:55;-0.30;99.90
23637;DHT22;11995;50.842;4.456;2023-03-01T06:08:20;-0.40;99.90
23637;DHT22;11995;50.842;4.456;2023-03-01T06:10:48;-0.40;99.90
23637;DHT22;11995;50.842;4.456;2023-03-01T06:13:16;-0.40;99.90
23637;DHT22;11995;50.842;4.456;2023-03-01T06:15:43;-0.30;99.90
23637;DHT22;11995;50.842;4.456;2023-03-01T06:18:11;-0.20;99.90
23637;DHT22;11995;50.842;4.456;2023-03-01T06:20:38;-0.30;99.90
23637;DHT22;11995;50.842;4.456;2023-03-01T06:23:06;-0.30;99.90
23637;DHT22;11995;50.842;4.456;2023-03-01T06:25:33;-0.30;99.90
23637;DHT22;11995;50.842;4.456;2023-03-01T06:28:01;-0.40;99.90
23637;DHT22;11995;50.842;4.456;2023-03-01T06:30:28;-0.30;99.90
23637;DHT22;11995;50.842;4.456;2023-03-01T06:32:56;-0.30;99.90
23637;DHT22;11995;50.842;4.456;2023-03-01T06:35:25;-0.30;99.90
23637;DHT22;11995;50.842;4.456;2023-03-01T06:37:55;-0.40;99.90
23637;DHT22;11995;50.842;4.456;2023-03-01T06:40:24;-0.40;99.90
23637;DHT22;11995;50.842;4.456;2023-03-01T06:42:52;-0.30;99.90
23637;DHT22;11995;50.842;4.456;2023-03-01T06:45:21;-0.30;99.90
23637;DHT22;11995;50.842;4.456;2023-03-01T06:47:49;-0.30;99.90
23637;DHT22;11995;50.842;4.456;2023-03-01T06:50:17;-0.20;99.90
23637;DHT22;11995;50.842;4.456;2023-03-01T06:52:44;-0.20;99.90
23637;DHT22;11995;50.842;4.456;2023-03-01T06:55:12;-0.20;99.90
23637;DHT22;11995;50.842;4.456;2023-03-01T06:57:40;-0.10;99.90
23637;DHT22;11995;50.842;4.456;2023-03-01T07:00:09;-0.20;99.90
23637;DHT22;11995;50.842;4.456;2023-03-01T07:02:36;-0.10;99.90
23637;DHT22;11995;50.842;4.456;2023-03-01T07:05:04;-0.10;99.90
23637;DHT22;11995;50.842;4.456;2023-03-01T07:07:32;-0.10;99.90
23637;DHT22;11995;50.842;4.456;2023-03-01T07:09:59;-0.10;99.90
23637;DHT22;11995;50.842;4.456;2023-03-01T07:12:28;-0.10;99.90
23637;DHT22;11995;50.842;4.456;2023-03-01T07:14:55;-0.10;99.90
23637;DHT22;11995;50.842;4.456;2023-03-01T07:17:23;0.10;99.90
23637;DHT22;11995;50.842;4.456;2023-03-01T07:19:50;0.20;99.90
23637;DHT22;11995;50.842;4.456;2023-03-01T07:22:18;0.20;99.90
23637;DHT22;11995;50.842;4.456;2023-03-01T07:24:45;0.20;99.90
23637;DHT22;11995;50.842;4.456;2023-03-01T07:27:13;0.40;99.90
23637;DHT22;11995;50.842;4.456;2023-03-01T07:29:40;0.40;99.90
23637;DHT22;11995;50.842;4.456;2023-03-01T07:32:08;0.30;99.90
23637;DHT22;11995;50.842;4.456;2023-03-01T07:34:36;0.40;99.90
23637;DHT22;11995;50.842;4.456;2023-03-01T07:37:04;0.20;99.90
23637;DHT22;11995;50.842;4.456;2023-03-01T07:39:31;0.20;99.90
23637;DHT22;11995;50.842;4.456;2023-03-01T07:41:59;0.20;99.90
23637;DHT22;11995;50.842;4.456;2023-03-01T07:44:27;0.20;99.90
23637;DHT22;11995;50.842;4.456;2023-03-01T07:47:00;0.50;99.90
23637;DHT22;11995;50.842;4.456;2023-03-01T07:49:28;0.80;99.90
23637;DHT22;11995;50.842;4.456;2023-03-01T07:51:55;1.00;99.90
23637;DHT22;11995;50.842;4.456;2023-03-01T07:54:23;1.20;99.90
23637;DHT22;11995;50.842;4.456;2023-03-01T07:56:52;1.20;99.90
23637;DHT22;11995;50.842;4.456;2023-03-01T07:59:21;1.10;99.90
23637;DHT22;11995;50.842;4.456;2023-03-01T08:01:50;1.20;99.90
23637;DHT22;11995;50.842;4.456;2023-03-01T08:04:17;1.10;99.90
23637;DHT22;11995;50.842;4.456;2023-03-01T08:06:45;1.20;99.90
23637;DHT22;11995;50.842;4.456;2023-03-01T08:09:12;1.30;99.90
23637;DHT22;11995;50.842;4.456;2023-03-01T08:11:40;1.40;99.90
23637;DHT22;11995;50.842;4.456;2023-03-01T08:14:07;1.30;99.90
23637;DHT22;11995;50.842;4.456;2023-03-01T08:16:43;1.20;99.90
23637;DHT22;11995;50.842;4.456;2023-03-01T08:19:12;1.10;99.90
23637;DHT22;11995;50.842;4.456;2023-03-01T08:21:39;1.00;99.90
23637;DHT22;11995;50.842;4.456;2023-03-01T08:24:08;0.80;99.90
23637;DHT22;11995;50.842;4.456;2023-03-01T08:26:39;0.70;99.90
23637;DHT22;11995;50.842;4.456;2023-03-01T08:29:07;0.80;99.90
23637;DHT22;11995;50.842;4.456;2023-03-01T08:31:38;1.10;99.90
23637;DHT22;11995;50.842;4.456;2023-03-01T08:34:13;1.00;99.90
23637;DHT22;11995;50.842;4.456;2023-03-01T08:36:43;1.00;99.90
23637;DHT22;11995;50.842;4.456;2023-03-01T08:39:13;1.00;99.90
23637;DHT22;11995;50.842;4.456;2023-03-01T08:41:41;1.10;99.90
23637;DHT22;11995;50.842;4.456;2023-03-01T08:44:11;1.20;99.90
23637;DHT22;11995;50.842;4.456;2023-03-01T08:46:41;1.30;99.90
23637;DHT22;11995;50.842;4.456;2023-03-01T08:49:15;1.30;99.90
23637;DHT22;11995;50.842;4.456;2023-03-01T08:51:44;1.40;99.90
23637;DHT22;11995;50.842;4.456;2023-03-01T08:54:14;1.40;99.90
23637;DHT22;11995;50.842;4.456;2023-03-01T08:56:42;1.40;99.90
23637;DHT22;11995;50.842;4.456;2023-03-01T08:59:12;1.40;99.90
23637;DHT22;11995;50.842;4.456;2023-03-01T09:01:40;1.60;99.90
23637;DHT22;11995;50.842;4.456;2023-03-01T09:04:11;1.50;99.90
23637;DHT22;11995;50.842;4.456;2023-03-01T09:06:40;1.70;99.90
23637;DHT22;11995;50.842;4.456;2023-03-01T09:09:16;1.80;99.90
23637;DHT22;11995;50.842;4.456;2023-03-01T09:11:45;1.90;99.90
23637;DHT22;11995;50.842;4.456;2023-03-01T09:14:13;2.00;99.90
23637;DHT22;11995;50.842;4.456;2023-03-01T09:16:44;1.90;99.90
23637;DHT22;11995;50.842;4.456;2023-03-01T09:19:13;2.20;99.90
23637;DHT22;11995;50.842;4.456;2023-03-01T09:21:41;2.10;99.90
23637;DHT22;11995;50.842;4.456;2023-03-01T09:24:14;2.20;99.90
23637;DHT22;11995;50.842;4.456;2023-03-01T09:26:48;1.90;99.90
23637;DHT22;11995;50.842;4.456;2023-03-01T09:29:16;1.90;99.90
23637;DHT22;11995;50.842;4.456;2023-03-01T09:31:44;1.80;99.90
23637;DHT22;11995;50.842;4.456;2023-03-01T09:34:12;2.10;99.90
23637;DHT22;11995;50.842;4.456;2023-03-01T09:36:42;2.20;99.90
23637;DHT22;11995;50.842;4.456;2023-03-01T09:39:13;2.40;99.90
23637;DHT22;11995;50.842;4.456;2023-03-01T09:47:12;2.40;99.90
23637;DHT22;11995;50.842;4.456;2023-03-01T09:49:44;2.30;99.90
23637;DHT22;11995;50.842;4.456;2023-03-01T09:52:28;2.20;99.90
23637;DHT22;11995;50.842;4.456;2023-03-01T09:54:47;2.30;99.90
23637;DHT22;11995;50.842;4.456;2023-03-01T09:57:26;2.40;99.90
23637;DHT22;11995;50.842;4.456;2023-03-01T10:00:46;2.30;99.90
23637;DHT22;11995;50.842;4.456;2023-03-01T10:02:52;2.30;99.90
23637;DHT22;11995;50.842;4.456;2023-03-01T10:06:22;2.40;99.90
23637;DHT22;11995;50.842;4.456;2023-03-01T10:10:47;2.60;99.90
23637;DHT22;11995;50.842;4.456;2023-03-01T10:16:17;2.70;99.90
23637;DHT22;11995;50.842;4.456;2023-03-01T10:18:51;2.90;99.90
23637;DHT22;11995;50.842;4.456;2023-03-01T10:21:18;2.90;99.90
23637;DHT22;11995;50.842;4.456;2023-03-01T10:23:49;2.90;99.90
23637;DHT22;11995;50.842;4.456;2023-03-01T10:29:11;3.00;99.90
23637;DHT22;11995;50.842;4.456;2023-03-01T10:31:50;3.30;99.90
23637;DHT22;11995;50.842;4.456;2023-03-01T10:34:34;3.40;99.90
23637;DHT22;11995;50.842;4.456;2023-03-01T10:37:16;3.40;99.90
23637;DHT22;11995;50.842;4.456;2023-03-01T10:42:47;3.50;99.90
23637;DHT22;11995;50.842;4.456;2023-03-01T10:48:13;3.30;99.90
23637;DHT22;11995;50.842;4.456;2023-03-01T10:50:46;3.50;99.90
23637;DHT22;11995;50.842;4.456;2023-03-01T10:56:09;3.60;99.90
23637;DHT22;11995;50.842;4.456;2023-03-01T10:58:30;3.50;99.90
23637;DHT22;11995;50.842;4.456;2023-03-01T11:04:02;3.80;99.90
23637;DHT22;11995;50.842;4.456;2023-03-01T11:06:20;3.90;99.90
23637;DHT22;11995;50.842;4.456;2023-03-01T11:08:49;3.90;99.90
23637;DHT22;11995;50.842;4.456;2023-03-01T11:11:32;3.90;99.90
23637;DHT22;11995;50.842;4.456;2023-03-01T11:14:19;3.70;99.90
23637;DHT22;11995;50.842;4.456;2023-03-01T11:16:57;3.60;99.90
23637;DHT22;11995;50.842;4.456;2023-03-01T11:19:20;3.90;99.90
23637;DHT22;11995;50.842;4.456;2023-03-01T11:21:54;4.10;99.90
23637;DHT22;11995;50.842;4.456;2023-03-01T11:24:25;4.20;99.90
23637;DHT22;11995;50.842;4.456;2023-03-01T11:26:54;4.20;99.90
23637;DHT22;11995;50.842;4.456;2023-03-01T11:29:34;4.20;99.90
23637;DHT22;11995;50.842;4.456;2023-03-01T11:32:06;4.40;99.90
23637;DHT22;11995;50.842;4.456;2023-03-01T11:34:55;4.50;99.90
23637;DHT22;11995;50.842;4.456;2023-03-01T11:40:25;4.10;99.90
23637;DHT22;11995;50.842;4.456;2023-03-01T11:43:09;4.10;99.90
23637;DHT22;11995;50.842;4.456;2023-03-01T11:45:50;4.10;99.90
23637;DHT22;11995;50.842;4.456;2023-03-01T11:48:50;4.00;99.90
23637;DHT22;11995;50.842;4.456;2023-03-01T11:51:23;4.10;99.90
23637;DHT22;11995;50.842;4.456;2023-03-01T11:56:41;4.20;99.90
23637;DHT22;11995;50.842;4.456;2023-03-01T12:05:01;4.70;99.90
23637;DHT22;11995;50.842;4.456;2023-03-01T12:07:36;4.70;99.90
23637;DHT22;11995;50.842;4.456;2023-03-01T12:13:18;4.90;99.90
23637;DHT22;11995;50.842;4.456;2023-03-01T12:15:58;4.70;99.90
23637;DHT22;11995;50.842;4.456;2023-03-01T12:32:48;5.10;99.90
23637;DHT22;11995;50.842;4.456;2023-03-01T12:35:20;4.90;99.90
23637;DHT22;11995;50.842;4.456;2023-03-01T12:40:33;5.00;99.90
23637;DHT22;11995;50.842;4.456;2023-03-01T12:43:31;5.10;99.90
23637;DHT22;11995;50.842;4.456;2023-03-01T12:46:49;5.10;99.90
23637;DHT22;11995;50.842;4.456;2023-03-01T12:51:14;5.30;99.90
23637;DHT22;11995;50.842;4.456;2023-03-01T12:53:47;5.10;99.90
23637;DHT22;11995;50.842;4.456;2023-03-01T12:56:18;5.20;99.90
23637;DHT22;11995;50.842;4.456;2023-03-01T13:04:18;5.50;99.90
23637;DHT22;11995;50.842;4.456;2023-03-01T13:07:00;5.50;99.90
23637;DHT22;11995;50.842;4.456;2023-03-01T13:09:35;5.40;99.90
23637;DHT22;11995;50.842;4.456;2023-03-01T13:12:00;5.50;99.90
23637;DHT22;11995;50.842;4.456;2023-03-01T13:14:35;5.60;99.90
23637;DHT22;11995;50.842;4.456;2023-03-01T13:17:03;5.50;99.10
23637;DHT22;11995;50.842;4.456;2023-03-01T13:19:32;5.30;99.80
23637;DHT22;11995;50.842;4.456;2023-03-01T13:22:25;5.50;99.80
23637;DHT22;11995;50.842;4.456;2023-03-01T13:24:42;5.50;99.90
23637;DHT22;11995;50.842;4.456;2023-03-01T13:29:50;5.50;99.90
23637;DHT22;11995;50.842;4.456;2023-03-01T13:32:26;5.50;99.90
23637;DHT22;11995;50.842;4.456;2023-03-01T13:37:44;5.70;99.90
23637;DHT22;11995;50.842;4.456;2023-03-01T13:42:54;5.60;98.90
23637;DHT22;11995;50.842;4.456;2023-03-01T13:45:34;5.50;99.10
23637;DHT22;11995;50.842;4.456;2023-03-01T13:48:23;5.50;99.10
23637;DHT22;11995;50.842;4.456;2023-03-01T13:50:50;5.60;99.00
23637;DHT22;11995;50.842;4.456;2023-03-01T13:53:19;5.70;99.20
23637;DHT22;11995;50.842;4.456;2023-03-01T13:55:57;5.60;98.40
23637;DHT22;11995;50.842;4.456;2023-03-01T13:58:26;5.70;98.00
23637;DHT22;11995;50.842;4.456;2023-03-01T14:01:03;5.70;98.50
23637;DHT22;11995;50.842;4.456;2023-03-01T14:03:28;5.80;98.60
23637;DHT22;11995;50.842;4.456;2023-03-01T14:06:19;5.80;98.70
23637;DHT22;11995;50.842;4.456;2023-03-01T14:08:49;5.80;98.70
23637;DHT22;11995;50.842;4.456;2023-03-01T14:11:35;5.70;98.00
23637;DHT22;11995;50.842;4.456;2023-03-01T14:14:08;5.70;98.40
23637;DHT22;11995;50.842;4.456;2023-03-01T14:16:56;5.70;98.70
23637;DHT22;11995;50.842;4.456;2023-03-01T14:19:28;5.70;98.70
23637;DHT22;11995;50.842;4.456;2023-03-01T14:22:26;5.80;98.90
23637;DHT22;11995;50.842;4.456;2023-03-01T14:24:34;5.80;98.40
23637;DHT22;11995;50.842;4.456;2023-03-01T14:27:03;5.80;98.20
23637;DHT22;11995;50.842;4.456;2023-03-01T14:29:37;5.80;97.70
23637;DHT22;11995;50.842;4.456;2023-03-01T14:32:19;5.90;98.20
23637;DHT22;11995;50.842;4.456;2023-03-01T14:34:51;6.00;98.40
23637;DHT22;11995;50.842;4.456;2023-03-01T14:37:31;6.00;98.60
23637;DHT22;11995;50.842;4.456;2023-03-01T14:40:00;6.10;98.10
23637;DHT22;11995;50.842;4.456;2023-03-01T14:42:35;5.90;98.00
23637;DHT22;11995;50.842;4.456;2023-03-01T14:45:00;6.00;97.40
23637;DHT22;11995;50.842;4.456;2023-03-01T14:47:31;6.00;98.00
23637;DHT22;11995;50.842;4.456;2023-03-01T14:50:05;5.90;98.20
23637;DHT22;11995;50.842;4.456;2023-03-01T14:52:34;6.00;97.40
23637;DHT22;11995;50.842;4.456;2023-03-01T14:55:15;5.90;96.90
23637;DHT22;11995;50.842;4.456;2023-03-01T14:57:34;6.00;97.20
23637;DHT22;11995;50.842;4.456;2023-03-01T15:00:03;6.10;97.40
23637;DHT22;11995;50.842;4.456;2023-03-01T15:02:33;6.10;97.80
23637;DHT22;11995;50.842;4.456;2023-03-01T15:05:01;5.80;98.20
23637;DHT22;11995;50.842;4.456;2023-03-01T15:07:33;5.90;98.20
23637;DHT22;11995;50.842;4.456;2023-03-01T15:10:04;6.10;98.30
23637;DHT22;11995;50.842;4.456;2023-03-01T15:12:34;6.00;98.10
23637;DHT22;11995;50.842;4.456;2023-03-01T15:15:29;6.20;97.80
23637;DHT22;11995;50.842;4.456;2023-03-01T15:17:53;6.20;97.90
23637;DHT22;11995;50.842;4.456;2023-03-01T15:20:26;6.00;97.60
23637;DHT22;11995;50.842;4.456;2023-03-01T15:22:57;6.10;97.80
23637;DHT22;11995;50.842;4.456;2023-03-01T15:25:27;6.20;98.30
23637;DHT22;11995;50.842;4.456;2023-03-01T15:27:57;6.20;98.20
23637;DHT22;11995;50.842;4.456;2023-03-01T15:30:33;6.20;98.00
23637;DHT22;11995;50.842;4.456;2023-03-01T15:33:27;6.20;97.60
23637;DHT22;11995;50.842;4.456;2023-03-01T15:35:50;6.20;98.20
23637;DHT22;11995;50.842;4.456;2023-03-01T15:38:34;6.10;98.60
23637;DHT22;11995;50.842;4.456;2023-03-01T15:41:21;6.20;97.90
23637;DHT22;11995;50.842;4.456;2023-03-01T15:43:43;6.20;98.30
23637;DHT22;11995;50.842;4.456;2023-03-01T15:48:46;6.10;97.90
23637;DHT22;11995;50.842;4.456;2023-03-01T15:51:16;6.00;98.20
23637;DHT22;11995;50.842;4.456;2023-03-01T15:53:45;6.00;99.10
23637;DHT22;11995;50.842;4.456;2023-03-01T15:56:13;6.10;98.50
23637;DHT22;11995;50.842;4.456;2023-03-01T15:58:41;6.00;96.70
23637;DHT22;11995;50.842;4.456;2023-03-01T16:01:17;6.00;96.90
23637;DHT22;11995;50.842;4.456;2023-03-01T16:03:45;5.90;96.90
23637;DHT22;11995;50.842;4.456;2023-03-01T16:06:13;5.90;96.80
23637;DHT22;11995;50.842;4.456;2023-03-01T16:08:40;5.80;96.60
23637;DHT22;11995;50.842;4.456;2023-03-01T16:11:19;5.90;97.10
23637;DHT22;11995;50.842;4.456;2023-03-01T16:13:47;6.00;96.80
23637;DHT22;11995;50.842;4.456;2023-03-01T16:16:15;6.10;96.60
23637;DHT22;11995;50.842;4.456;2023-03-01T16:18:46;5.90;96.90
23637;DHT22;11995;50.842;4.456;2023-03-01T16:21:25;6.00;96.80
23637;DHT22;11995;50.842;4.456;2023-03-01T16:23:44;6.10;96.30
23637;DHT22;11995;50.842;4.456;2023-03-01T16:26:12;6.00;96.70
23637;DHT22;11995;50.842;4.456;2023-03-01T16:28:42;5.90;96.80
23637;DHT22;11995;50.842;4.456;2023-03-01T16:31:13;5.80;97.10
23637;DHT22;11995;50.842;4.456;2023-03-01T16:33:41;5.70;97.40
23637;DHT22;11995;50.842;4.456;2023-03-01T16:36:11;5.70;97.70
23637;DHT22;11995;50.842;4.456;2023-03-01T16:38:39;5.90;97.10
23637;DHT22;11995;50.842;4.456;2023-03-01T16:41:14;5.90;97.00
23637;DHT22;11995;50.842;4.456;2023-03-01T16:43:37;5.90;97.20
23637;DHT22;11995;50.842;4.456;2023-03-01T16:46:22;5.90;97.10
23637;DHT22;11995;50.842;4.456;2023-03-01T16:48:47;5.90;97.10
23637;DHT22;11995;50.842;4.456;2023-03-01T16:51:15;5.80;97.30
23637;DHT22;11995;50.842;4.456;2023-03-01T16:53:43;5.70;97.60
23637;DHT22;11995;50.842;4.456;2023-03-01T16:56:12;5.60;97.90
23637;DHT22;11995;50.842;4.456;2023-03-01T16:58:41;5.50;98.20
23637;DHT22;11995;50.842;4.456;2023-03-01T17:01:19;5.50;98.50
23637;DHT22;11995;50.842;4.456;2023-03-01T17:03:44;5.50;98.60
23637;DHT22;11995;50.842;4.456;2023-03-01T17:06:15;5.50;98.40
23637;DHT22;11995;50.842;4.456;2023-03-01T17:08:43;5.50;98.60
23637;DHT22;11995;50.842;4.456;2023-03-01T17:11:13;5.50;98.70
23637;DHT22;11995;50.842;4.456;2023-03-01T17:13:42;5.50;99.20
23637;DHT22;11995;50.842;4.456;2023-03-01T17:16:13;5.50;99.20
23637;DHT22;11995;50.842;4.456;2023-03-01T17:18:43;5.40;99.30
23637;DHT22;11995;50.842;4.456;2023-03-01T17:21:11;5.50;99.30
23637;DHT22;11995;50.842;4.456;2023-03-01T17:23:41;5.50;99.20
23637;DHT22;11995;50.842;4.456;2023-03-01T17:26:09;5.50;99.60
23637;DHT22;11995;50.842;4.456;2023-03-01T17:28:38;5.50;99.60
23637;DHT22;11995;50.842;4.456;2023-03-01T17:31:06;5.30;99.90
23637;DHT22;11995;50.842;4.456;2023-03-01T17:33:36;5.20;99.90